sensor_id;sensor_type;location;lat;lon;timestamp;temperature;humidity
18934;DHT22;9599;53.706;10.384;2023-03-02T00:01:37;2.10;99.90
18934;DHT22;9599;53.706;10.384;2023-03-02T00:04:10;2.10;99.90
18934;DHT22;9599;53.706;10.384;2023-03-02T00:06:39;2.00;99.90
18934;DHT22;9599;53.706;10.384;2023-03-02T00:09:07;2.10;99.90
18934;DHT22;9599;53.706;10.384;2023-03-02T00:11:37;2.00;99.90
18934;DHT22;9599;53.706;10.384;2023-03-02T00:14:05;2.00;99.90
18934;DHT22;9599;53.706;10.384;2023-03-02T00:16:33;1.90;99.90
18934;DHT22;9599;53.706;10.384;2023-03-02T00:19:01;2.00;99.90
18934;DHT22;9599;53.706;10.384;2023-03-02T00:21:29;2.00;99.90
18934;DHT22;9599;53.706;10.384;2023-03-02T00:23:57;1.90;99.90
18934;DHT22;9599;53.706;10.384;2023-03-02T00:26:25;1.90;99.90
18934;DHT22;9599;53.706;10.384;2023-03-02T00:28:54;1.90;99.90
18934;DHT22;9599;53.706;10.384;2023-03-02T00:31:22;1.90;99.90
18934;DHT22;9599;53.706;10.384;2023-03-02T00:33:51;1.90;99.90
18934;DHT22;9599;53.706;10.384;2023-03-02T00:36:21;1.90;99.90
18934;DHT22;9599;53.706;10.384;2023-03-02T00:38:50;1.90;99.90
18934;DHT22;9599;53.706;10.384;2023-03-02T00:41:19;1.90;99.90
18934;DHT22;9599;53.706;10.384;2023-03-02T00:43:49;1.80;99.90
18934;DHT22;9599;53.706;10.384;2023-03-02T00:46:20;1.80;99.90
18934;DHT22;9599;53.706;10.384;2023-03-02T00:48:48;1.80;99.90
18934;DHT22;9599;53.706;10.384;2023-03-02T00:51:16;1.80;99.90
18934;DHT22;9599;53.706;10.384;2023-03-02T00:53:44;1.70;99.90
18934;DHT22;9599;53.706;10.384;2023-03-02T00:56:12;1.70;99.90
18934;DHT22;9599;53.706;10.384;2023-03-02T00:58:46;1.80;99.90
18934;DHT22;9599;53.706;10.384;2023-03-02T01:01:14;1.80;99.90
18934;DHT22;9599;53.706;10.384;2023-03-02T01:03:49;1.80;99.90
18934;DHT22;9599;53.706;10.384;2023-03-02T01:06:20;1.80;99.90
18934;DHT22;9599;53.706;10.384;2023-03-02T01:08:48;1.80;99.90
18934;DHT22;9599;53.706;10.384;2023-03-02T01:11:18;1.80;99.90
18934;DHT22;9599;53.706;10.384;2023-03-02T01:13:47;1.80;99.90
18934;DHT22;9599;53.706;10.384;2023-03-02T01:16:15;1.80;99.90
18934;DHT22;9599;53.706;10.384;2023-03-02T01:18:43;1.80;99.90
18934;DHT22;9599;53.706;10.384;2023-03-02T01:21:14;1.70;99.90
18934;DHT22;9599;53.706;10.384;2023-03-02T01:23:42;1.70;99.90
18934;DHT22;9599;53.706;10.384;2023-03-02T01:26:10;1.80;99.90
18934;DHT22;9599;53.706;10.384;2023-03-02T01:28:38;1.80;99.90
18934;DHT22;9599;53.706;10.384;2023-03-02T01:31:06;1.80;99.90
18934;DHT22;9599;53.706;10.384;2023-03-02T01:33:34;1.80;99.90
18934;DHT22;9599;53.706;10.384;2023-03-02T01:36:02;1.80;99.90
18934;DHT22;9599;53.706;10.384;2023-03-02T01:38:31;1.90;99.90
18934;DHT22;9599;53.706;10.384;2023-03-02T01:40:59;1.80;99.90
18934;DHT22;9599;53.706;10.384;2023-03-02T01:43:27;1.70;99.90
18934;DHT22;9599;53.706;10.384;2023-03-02T01:45:56;1.50;99.90
18934;DHT22;9599;53.706;10.384;2023-03-02T01:48:39;1.60;99.90
18934;DHT22;9599;53.706;10.384;2023-03-02T01:51:11;1.60;99.90
18934;DHT22;9599;53.706;10.384;2023-03-02T01:53:45;1.50;99.90
18934;DHT22;9599;53.706;10.384;2023-03-02T01:56:17;1.50;99.90
18934;DHT22;9599;53.706;10.384;2023-03-02T01:58:47;1.50;99.90
18934;DHT22;9599;53.706;10.384;2023-03-02T02:01:17;1.40;99.90
18934;DHT22;9599;53.706;10.384;2023-03-02T02:03:48;1.40;99.90
18934;DHT22;9599;53.706;10.384;2023-03-02T02:06:22;1.40;99.90
18934;DHT22;9599;53.706;10.384;2023-03-02T02:08:53;1.40;99.90
18934;DHT22;9599;53.706;10.384;2023-03-02T02:11:23;1.40;99.90
18934;DHT22;9599;53.706;10.384;2023-03-02T02:13:54;1.40;99.90
18934;DHT22;9599;53.706;10.384;2023-03-02T02:16:23;1.30;99.90
18934;DHT22;9599;53.706;10.384;2023-03-02T02:18:51;1.30;99.90
18934;DHT22;9599;53.706;10.384;2023-03-02T02:21:20;1.20;99.90
18934;DHT22;9599;53.706;10.384;2023-03-02T02:23:55;1.20;99.90
18934;DHT22;9599;53.706;10.384;2023-03-02T02:26:31;1.30;99.90
18934;DHT22;9599;53.706;10.384;2023-03-02T02:29:03;1.30;99.90
18934;DHT22;9599;53.706;10.384;2023-03-02T02:31:36;1.20;99.90
18934;DHT22;9599;53.706;10.384;2023-03-02T02:34:10;1.20;99.90
18934;DHT22;9599;53.706;10.384;2023-03-02T02:36:42;1.20;99.90
18934;DHT22;9599;53.706;10.384;2023-03-02T02:39:18;1.10;99.90
18934;DHT22;9599;53.706;10.384;2023-03-02T02:41:50;1.10;99.90
18934;DHT22;9599;53.706;10.384;2023-03-02T02:44:21;1.10;99.90
18934;DHT22;9599;53.706;10.384;2023-03-02T02:46:49;1.10;99.90
18934;DHT22;9599;53.706;10.384;2023-03-02T02:49:28;1.20;99.90
18934;DHT22;9599;53.706;10.384;2023-03-02T02:51:57;1.20;99.90
18934;DHT22;9599;53.706;10.384;2023-03-02T02:54:26;1.10;99.90
18934;DHT22;9599;53.706;10.384;2023-03-02T02:56:58;1.10;99.90
18934;DHT22;9599;53.706;10.384;2023-03-02T02:59:31;1.10;99.90
18934;DHT22;9599;53.706;10.384;2023-03-02T03:02:00;1.10;99.90
18934;DHT22;9599;53.706;10.384;2023-03-02T03:04:30;1.10;99.90
18934;DHT22;9599;53.706;10.384;2023-03-02T03:07:00;0.90;99.90
18934;DHT22;9599;53.706;10.384;2023-03-02T03:09:30;0.90;99.90
18934;DHT22;9599;53.706;10.384;2023-03-02T03:12:03;0.80;99.90
18934;DHT22;9599;53.706;10.384;2023-03-02T03:14:34;0.80;99.90
18934;DHT22;9599;53.706;10.384;2023-03-02T03:17:03;0.70;99.90
18934;DHT22;9599;53.706;10.384;2023-03-02T03:19:42;0.70;99.90
18934;DHT22;9599;53.706;10.384;2023-03-02T03:22:12;0.70;99.90
18934;DHT22;9599;53.706;10.384;2023-03-02T03:24:41;0.70;99.90
18934;DHT22;9599;53.706;10.384;2023-03-02T03:27:13;0.70;99.90
18934;DHT22;9599;53.706;10.384;2023-03-02T03:29:45;0.80;99.90
18934;DHT22;9599;53.706;10.384;2023-03-02T03:32:16;0.80;99.90
18934;DHT22;9599;53.706;10.384;2023-03-02T03:34:46;0.80;99.90
18934;DHT22;9599;53.706;10.384;2023-03-02T03:37:20;0.80;99.90
18934;DHT22;9599;53.706;10.384;2023-03-02T03:39:49;0.80;99.90
18934;DHT22;9599;53.706;10.384;2023-03-02T03:42:19;0.70;99.90
18934;DHT22;9599;53.706;10.384;2023-03-02T03:44:49;0.70;99.90
18934;DHT22;9599;53.706;10.384;2023-03-02T03:47:18;0.70;99.90
18934;DHT22;9599;53.706;10.384;2023-03-02T03:49:46;0.80;99.90
18934;DHT22;9599;53.706;10.384;2023-03-02T03:52:14;0.80;99.90
18934;DHT22;9599;53.706;10.384;2023-03-02T03:54:43;0.90;99.90
18934;DHT22;9599;53.706;10.384;2023-03-02T03:57:10;0.80;99.90
18934;DHT22;9599;53.706;10.384;2023-03-02T03:59:40;0.80;99.90
18934;DHT22;9599;53.706;10.384;2023-03-02T04:02:09;0.80;99.90
18934;DHT22;9599;53.706;10.384;2023-03-02T04:04:40;0.70;99.90
18934;DHT22;9599;53.706;10.384;2023-03-02T04:07:16;0.70;99.90
18934;DHT22;9599;53.706;10.384;2023-03-02T04:09:45;0.70;99.90
18934;DHT22;9599;53.706;10.384;2023-03-02T04:12:14;0.60;99.90
18934;DHT22;9599;53.706;10.384;2023-03-02T04:14:49;0.60;99.90
18934;DHT22;9599;53.706;10.384;2023-03-02T04:17:17;0.60;99.90
18934;DHT22;9599;53.706;10.384;2023-03-02T04:19:47;0.50;99.90
18934;DHT22;9599;53.706;10.384;2023-03-02T04:22:16;0.50;99.90
18934;DHT22;9599;53.706;10.384;2023-03-02T04:24:46;0.60;99.90
18934;DHT22;9599;53.706;10.384;2023-03-02T04:27:15;0.60;99.90
18934;DHT22;9599;53.706;10.384;2023-03-02T04:29:44;0.60;99.90
18934;DHT22;9599;53.706;10.384;2023-03-02T04:32:14;0.60;99.90
18934;DHT22;9599;53.706;10.384;2023-03-02T04:34:46;0.50;99.90
18934;DHT22;9599;53.706;10.384;2023-03-02T04:37:14;0.50;99.90
18934;DHT22;9599;53.706;10.384;2023-03-02T04:39:42;0.50;99.90
18934;DHT22;9599;53.706;10.384;2023-03-02T04:42:12;0.40;99.90
18934;DHT22;9599;53.706;10.384;2023-03-02T04:44:40;0.40;99.90
18934;DHT22;9599;53.706;10.384;2023-03-02T04:47:08;0.40;99.90
18934;DHT22;9599;53.706;10.384;2023-03-02T04:49:38;0.40;99.90
18934;DHT22;9599;53.706;10.384;2023-03-02T04:52:06;0.40;99.90
18934;DHT22;9599;53.706;10.384;2023-03-02T04:54:34;0.40;99.90
18934;DHT22;9599;53.706;10.384;2023-03-02T04:57:02;0.40;99.90
18934;DHT22;9599;53.706;10.384;2023-03-02T04:59:30;0.40;99.90
18934;DHT22;9599;53.706;10.384;2023-03-02T05:01:59;0.40;99.90
18934;DHT22;9599;53.706;10.384;2023-03-02T05:04:28;0.50;99.90
18934;DHT22;9599;53.706;10.384;2023-03-02T05:06:58;0.50;99.90
18934;DHT22;9599;53.706;10.384;2023-03-02T05:09:26;0.40;99.90
18934;DHT22;9599;53.706;10.384;2023-03-02T05:11:58;0.40;99.90
18934;DHT22;9599;53.706;10.384;2023-03-02T05:14:26;0.50;99.90
18934;DHT22;9599;53.706;10.384;2023-03-02T05:16:55;0.50;99.90
18934;DHT22;9599;53.706;10.384;2023-03-02T05:19:23;0.50;99.90
18934;DHT22;9599;53.706;10.384;2023-03-02T05:21:50;0.50;99.90
18934;DHT22;9599;53.706;10.384;2023-03-02T05:24:20;0.50;99.90
18934;DHT22;9599;53.706;10.384;2023-03-02T05:26:48;0.50;99.90
18934;DHT22;9599;53.706;10.384;2023-03-02T05:29:16;0.40;99.90
18934;DHT22;9599;53.706;10.384;2023-03-02T05:31:44;0.50;99.90
18934;DHT22;9599;53.706;10.384;2023-03-02T05:34:14;0.40;99.90
18934;DHT22;9599;53.706;10.384;2023-03-02T05:36:43;0.30;99.90
18934;DHT22;9599;53.706;10.384;2023-03-02T05:39:12;0.40;99.90
18934;DHT22;9599;53.706;10.384;2023-03-02T05:41:41;0.40;99.90
18934;DHT22;9599;53.706;10.384;2023-03-02T05:44:09;0.40;99.90
18934;DHT22;9599;53.706;10.384;2023-03-02T05:46:38;0.40;99.90
18934;DHT22;9599;53.706;10.384;2023-03-02T05:49:06;0.40;99.90
18934;DHT22;9599;53.706;10.384;2023-03-02T05:51:34;0.40;99.90
18934;DHT22;9599;53.706;10.384;2023-03-02T05:54:02;0.30;99.90
18934;DHT22;9599;53.706;10.384;2023-03-02T05:56:30;0.30;99.90
18934;DHT22;9599;53.706;10.384;2023-03-02T05:58:59;0.40;99.90
18934;DHT22;9599;53.706;10.384;2023-03-02T06:01:27;0.50;99.90
18934;DHT22;9599;53.706;10.384;2023-03-02T06:03:55;0.50;99.90
18934;DHT22;9599;53.706;10.384;2023-03-02T06:06:23;0.60;99.90
18934;DHT22;9599;53.706;10.384;2023-03-02T06:08:52;0.60;99.90
18934;DHT22;9599;53.706;10.384;2023-03-02T06:11:20;0.60;99.90
18934;DHT22;9599;53.706;10.384;2023-03-02T06:13:48;0.60;99.90
18934;DHT22;9599;53.706;10.384;2023-03-02T06:16:17;0.60;99.90
18934;DHT22;9599;53.706;10.384;2023-03-02T06:18:45;0.50;99.90
18934;DHT22;9599;53.706;10.384;2023-03-02T06:21:13;0.60;99.90
18934;DHT22;9599;53.706;10.384;2023-03-02T06:23:41;0.60;99.90
18934;DHT22;9599;53.706;10.384;2023-03-02T06:26:10;0.60;99.90
18934;DHT22;9599;53.706;10.384;2023-03-02T06:28:39;0.60;99.90
18934;DHT22;9599;53.706;10.384;2023-03-02T06:31:23;0.70;99.90
18934;DHT22;9599;53.706;10.384;2023-03-02T06:33:51;0.80;99.90
18934;DHT22;9599;53.706;10.384;2023-03-02T06:36:19;0.90;99.90
18934;DHT22;9599;53.706;10.384;2023-03-02T06:38:47;0.90;99.90
18934;DHT22;9599;53.706;10.384;2023-03-02T06:41:15;0.90;99.90
18934;DHT22;9599;53.706;10.384;2023-03-02T06:43:43;0.90;99.90
18934;DHT22;9599;53.706;10.384;2023-03-02T06:46:11;0.90;99.90
18934;DHT22;9599;53.706;10.384;2023-03-02T06:48:40;0.90;99.90
18934;DHT22;9599;53.706;10.384;2023-03-02T06:51:10;1.00;99.90
18934;DHT22;9599;53.706;10.384;2023-03-02T06:53:38;1.00;99.90
18934;DHT22;9599;53.706;10.384;2023-03-02T06:56:07;1.00;99.90
18934;DHT22;9599;53.706;10.384;2023-03-02T06:58:35;1.10;99.90
18934;DHT22;9599;53.706;10.384;2023-03-02T07:01:03;1.20;99.90
18934;DHT22;9599;53.706;10.384;2023-03-02T07:03:33;1.20;99.90
18934;DHT22;9599;53.706;10.384;2023-03-02T07:06:03;1.30;99.90
18934;DHT22;9599;53.706;10.384;2023-03-02T07:08:31;1.30;99.90
18934;DHT22;9599;53.706;10.384;2023-03-02T07:11:02;1.30;99.90
18934;DHT22;9599;53.706;10.384;2023-03-02T07:13:30;1.30;99.90
18934;DHT22;9599;53.706;10.384;2023-03-02T07:15:58;1.30;99.90
18934;DHT22;9599;53.706;10.384;2023-03-02T07:18:26;1.30;99.90
18934;DHT22;9599;53.706;10.384;2023-03-02T07:20:54;1.40;99.90
18934;DHT22;9599;53.706;10.384;2023-03-02T07:23:23;1.50;99.90
18934;DHT22;9599;53.706;10.384;2023-03-02T07:25:51;1.50;99.90
18934;DHT22;9599;53.706;10.384;2023-03-02T07:28:19;1.50;99.90
18934;DHT22;9599;53.706;10.384;2023-03-02T07:30:49;1.50;99.90
18934;DHT22;9599;53.706;10.384;2023-03-02T07:33:18;1.40;99.90
18934;DHT22;9599;53.706;10.384;2023-03-02T07:35:46;1.50;99.90
18934;DHT22;9599;53.706;10.384;2023-03-02T07:38:14;1.30;99.90
18934;DHT22;9599;53.706;10.384;2023-03-02T07:40:43;1.20;99.90
18934;DHT22;9599;53.706;10.384;2023-03-02T07:43:12;1.10;99.90
18934;DHT22;9599;53.706;10.384;2023-03-02T07:45:40;1.10;99.90
18934;DHT22;9599;53.706;10.384;2023-03-02T07:48:08;1.20;99.90
18934;DHT22;9599;53.706;10.384;2023-03-02T07:50:36;1.30;99.90
18934;DHT22;9599;53.706;10.384;2023-03-02T07:53:04;1.30;99.90
18934;DHT22;9599;53.706;10.384;2023-03-02T07:55:32;1.40;99.90
18934;DHT22;9599;53.706;10.384;2023-03-02T07:58:02;1.40;99.90
18934;DHT22;9599;53.706;10.384;2023-03-02T08:00:32;1.50;99.90
18934;DHT22;9599;53.706;10.384;2023-03-02T08:03:02;1.60;99.90
18934;DHT22;9599;53.706;10.384;2023-03-02T08:05:30;1.70;99.90
18934;DHT22;9599;53.706;10.384;2023-03-02T08:07:58;1.60;99.90
18934;DHT22;9599;53.706;10.384;2023-03-02T08:10:26;1.60;99.90
18934;DHT22;9599;53.706;10.384;2023-03-02T08:12:54;1.50;99.90
18934;DHT22;9599;53.706;10.384;2023-03-02T08:15:23;1.50;99.90
18934;DHT22;9599;53.706;10.384;2023-03-02T08:17:51;1.70;99.90
18934;DHT22;9599;53.706;10.384;2023-03-02T08:20:19;1.60;99.90
18934;DHT22;9599;53.706;10.384;2023-03-02T08:22:48;1.50;99.90
18934;DHT22;9599;53.706;10.384;2023-03-02T08:25:17;1.60;99.90
18934;DHT22;9599;53.706;10.384;2023-03-02T08:27:45;1.60;99.90
18934;DHT22;9599;53.706;10.384;2023-03-02T08:30:15;1.50;99.90
18934;DHT22;9599;53.706;10.384;2023-03-02T08:32:44;1.60;99.90
18934;DHT22;9599;53.706;10.384;2023-03-02T08:35:12;1.70;99.90
18934;DHT22;9599;53.706;10.384;2023-03-02T08:37:40;1.70;99.90
18934;DHT22;9599;53.706;10.384;2023-03-02T08:40:09;1.70;99.90
18934;DHT22;9599;53.706;10.384;2023-03-02T08:42:37;1.70;99.90
18934;DHT22;9599;53.706;10.384;2023-03-02T08:45:06;1.60;99.90
18934;DHT22;9599;53.706;10.384;2023-03-02T08:47:34;1.70;99.90
18934;DHT22;9599;53.706;10.384;2023-03-02T08:50:04;1.80;99.90
18934;DHT22;9599;53.706;10.384;2023-03-02T08:52:32;1.80;99.90
18934;DHT22;9599;53.706;10.384;2023-03-02T08:55:00;1.80;99.90
18934;DHT22;9599;53.706;10.384;2023-03-02T08:57:30;1.80;99.90
18934;DHT22;9599;53.706;10.384;2023-03-02T08:59:57;1.90;99.90
18934;DHT22;9599;53.706;10.384;2023-03-02T09:02:25;1.80;99.90
18934;DHT22;9599;53.706;10.384;2023-03-02T09:04:53;1.90;99.90
18934;DHT22;9599;53.706;10.384;2023-03-02T09:07:23;2.00;99.90
18934;DHT22;9599;53.706;10.384;2023-03-02T09:09:51;2.20;99.90
18934;DHT22;9599;53.706;10.384;2023-03-02T09:12:19;2.10;99.90
18934;DHT22;9599;53.706;10.384;2023-03-02T09:14:47;2.20;99.90
18934;DHT22;9599;53.706;10.384;2023-03-02T09:17:15;2.10;99.90
18934;DHT22;9599;53.706;10.384;2023-03-02T09:19:44;2.30;99.90
18934;DHT22;9599;53.706;10.384;2023-03-02T09:22:12;2.30;99.90
18934;DHT22;9599;53.706;10.384;2023-03-02T09:24:41;2.40;99.90
18934;DHT22;9599;53.706;10.384;2023-03-02T09:27:09;2.20;99.90
18934;DHT22;9599;53.706;10.384;2023-03-02T09:29:37;2.10;99.90
18934;DHT22;9599;53.706;10.384;2023-03-02T09:32:05;2.10;99.90
18934;DHT22;9599;53.706;10.384;2023-03-02T09:34:33;2.10;99.90
18934;DHT22;9599;53.706;10.384;2023-03-02T09:37:01;2.30;99.90
18934;DHT22;9599;53.706;10.384;2023-03-02T09:39:30;2.30;99.90
18934;DHT22;9599;53.706;10.384;2023-03-02T09:42:13;2.30;99.90
18934;DHT22;9599;53.706;10.384;2023-03-02T09:44:59;2.40;99.90
18934;DHT22;9599;53.706;10.384;2023-03-02T09:47:35;2.20;99.90
18934;DHT22;9599;53.706;10.384;2023-03-02T09:50:15;2.20;99.90
18934;DHT22;9599;53.706;10.384;2023-03-02T09:52:55;2.10;99.90
18934;DHT22;9599;53.706;10.384;2023-03-02T09:55:34;2.10;99.90
18934;DHT22;9599;53.706;10.384;2023-03-02T09:58:05;2.30;99.90
18934;DHT22;9599;53.706;10.384;2023-03-02T10:00:35;2.40;99.90
18934;DHT22;9599;53.706;10.384;2023-03-02T10:03:08;2.30;99.90
18934;DHT22;9599;53.706;10.384;2023-03-02T10:05:45;2.40;99.90
18934;DHT22;9599;53.706;10.384;2023-03-02T10:08:15;2.60;99.90
18934;DHT22;9599;53.706;10.384;2023-03-02T10:10:51;2.80;99.90
18934;DHT22;9599;53.706;10.384;2023-03-02T10:13:28;2.80;99.90
18934;DHT22;9599;53.706;10.384;2023-03-02T10:16:09;2.80;99.90
18934;DHT22;9599;53.706;10.384;2023-03-02T10:18:42;2.50;99.90
18934;DHT22;9599;53.706;10.384;2023-03-02T10:21:19;2.40;99.90
18934;DHT22;9599;53.706;10.384;2023-03-02T10:23:52;2.40;99.90
18934;DHT22;9599;53.706;10.384;2023-03-02T10:26:32;2.30;99.90
18934;DHT22;9599;53.706;10.384;2023-03-02T10:29:20;2.30;99.90
18934;DHT22;9599;53.706;10.384;2023-03-02T10:31:55;2.40;99.90
18934;DHT22;9599;53.706;10.384;2023-03-02T10:34:27;2.60;99.90
18934;DHT22;9599;53.706;10.384;2023-03-02T10:36:57;2.70;99.90
18934;DHT22;9599;53.706;10.384;2023-03-02T10:39:25;2.70;99.90
18934;DHT22;9599;53.706;10.384;2023-03-02T10:41:57;2.70;99.90
18934;DHT22;9599;53.706;10.384;2023-03-02T10:44:29;2.70;99.90
18934;DHT22;9599;53.706;10.384;2023-03-02T10:46:58;2.70;99.90
18934;DHT22;9599;53.706;10.384;2023-03-02T10:49:28;2.60;99.90
18934;DHT22;9599;53.706;10.384;2023-03-02T10:52:00;2.50;99.90
18934;DHT22;9599;53.706;10.384;2023-03-02T10:54:29;2.70;99.90
18934;DHT22;9599;53.706;10.384;2023-03-02T10:57:00;2.80;99.90
18934;DHT22;9599;53.706;10.384;2023-03-02T10:59:37;2.80;99.90
18934;DHT22;9599;53.706;10.384;2023-03-02T11:02:15;2.80;99.90
18934;DHT22;9599;53.706;10.384;2023-03-02T11:04:44;2.80;99.90
18934;DHT22;9599;53.706;10.384;2023-03-02T11:07:16;2.70;99.90
18934;DHT22;9599;53.706;10.384;2023-03-02T11:09:58;2.70;99.90
18934;DHT22;9599;53.706;10.384;2023-03-02T11:12:28;2.50;99.90
18934;DHT22;9599;53.706;10.384;2023-03-02T11:15:18;2.80;99.90
18934;DHT22;9599;53.706;10.384;2023-03-02T11:17:51;2.80;99.90
18934;DHT22;9599;53.706;10.384;2023-03-02T11:20:24;2.80;99.90
18934;DHT22;9599;53.706;10.384;2023-03-02T11:22:59;2.80;99.90
18934;DHT22;9599;53.706;10.384;2023-03-02T11:25:32;2.80;99.90
18934;DHT22;9599;53.706;10.384;2023-03-02T11:30:50;3.10;99.90
18934;DHT22;9599;53.706;10.384;2023-03-02T11:33:23;3.10;99.90
18934;DHT22;9599;53.706;10.384;2023-03-02T11:35:55;3.10;99.90
18934;DHT22;9599;53.706;10.384;2023-03-02T11:38:27;3.10;99.90
18934;DHT22;9599;53.706;10.384;2023-03-02T11:40:59;3.10;99.90
18934;DHT22;9599;53.706;10.384;2023-03-02T11:43:28;3.10;99.90
18934;DHT22;9599;53.706;10.384;2023-03-02T11:46:01;3.30;99.90
18934;DHT22;9599;53.706;10.384;2023-03-02T11:48:42;3.30;99.90
18934;DHT22;9599;53.706;10.384;2023-03-02T11:51:15;3.30;99.90
18934;DHT22;9599;53.706;10.384;2023-03-02T11:53:49;3.40;99.90
18934;DHT22;9599;53.706;10.384;2023-03-02T11:56:18;3.40;99.90
18934;DHT22;9599;53.706;10.384;2023-03-02T11:58:51;3.40;99.90
18934;DHT22;9599;53.706;10.384;2023-03-02T12:01:25;3.40;99.90
18934;DHT22;9599;53.706;10.384;2023-03-02T12:04:04;3.50;99.90
18934;DHT22;9599;53.706;10.384;2023-03-02T12:06:35;3.60;99.90
18934;DHT22;9599;53.706;10.384;2023-03-02T12:09:13;3.60;99.90
18934;DHT22;9599;53.706;10.384;2023-03-02T12:11:54;3.40;99.90
18934;DHT22;9599;53.706;10.384;2023-03-02T12:14:33;3.40;99.90
18934;DHT22;9599;53.706;10.384;2023-03-02T12:17:06;3.40;99.90
18934;DHT22;9599;53.706;10.384;2023-03-02T12:19:44;3.40;99.90
18934;DHT22;9599;53.706;10.384;2023-03-02T12:22:12;3.40;99.90
18934;DHT22;9599;53.706;10.384;2023-03-02T12:24:43;3.50;99.90
18934;DHT22;9599;53.706;10.384;2023-03-02T12:27:24;3.60;99.90
18934;DHT22;9599;53.706;10.384;2023-03-02T12:30:07;3.40;99.90
18934;DHT22;9599;53.706;10.384;2023-03-02T12:32:36;3.50;99.90
18934;DHT22;9599;53.706;10.384;2023-03-02T12:35:10;3.70;99.90
18934;DHT22;9599;53.706;10.384;2023-03-02T12:37:44;3.70;99.90
18934;DHT22;9599;53.706;10.384;2023-03-02T12:40:38;3.80;99.90
18934;DHT22;9599;53.706;10.384;2023-03-02T12:48:46;3.80;99.90
18934;DHT22;9599;53.706;10.384;2023-03-02T12:51:20;3.90;99.90
18934;DHT22;9599;53.706;10.384;2023-03-02T12:53:49;4.00;99.90
18934;DHT22;9599;53.706;10.384;2023-03-02T12:56:28;4.10;99.90
18934;DHT22;9599;53.706;10.384;2023-03-02T12:58:55;4.10;99.90
18934;DHT22;9599;53.706;10.384;2023-03-02T13:01:25;3.90;99.90
18934;DHT22;9599;53.706;10.384;2023-03-02T13:03:57;3.90;99.90
18934;DHT22;9599;53.706;10.384;2023-03-02T13:06:28;4.00;99.90
18934;DHT22;9599;53.706;10.384;2023-03-02T13:08:58;4.10;99.90
18934;DHT22;9599;53.706;10.384;2023-03-02T13:11:29;4.10;99.90
18934;DHT22;9599;53.706;10.384;2023-03-02T13:13:59;4.10;99.90
18934;DHT22;9599;53.706;10.384;2023-03-02T13:16:31;4.10;99.90
18934;DHT22;9599;53.706;10.384;2023-03-02T13:19:03;4.00;99.90
18934;DHT22;9599;53.706;10.384;2023-03-02T13:21:34;4.10;99.90
18934;DHT22;9599;53.706;10.384;2023-03-02T13:24:17;4.20;99.90
18934;DHT22;9599;53.706;10.384;2023-03-02T13:26:54;4.10;99.90
18934;DHT22;9599;53.706;10.384;2023-03-02T13:29:25;4.10;99.90
18934;DHT22;9599;53.706;10.384;2023-03-02T13:31:54;4.10;99.90
18934;DHT22;9599;53.706;10.384;2023-03-02T13:34:25;4.20;99.90
18934;DHT22;9599;53.706;10.384;2023-03-02T13:36:54;4.30;99.90
18934;DHT22;9599;53.706;10.384;2023-03-02T13:39:25;4.50;99.90
18934;DHT22;9599;53.706;10.384;2023-03-02T13:41:54;4.50;99.90
18934;DHT22;9599;53.706;10.384;2023-03-02T13:44:26;4.40;99.90
18934;DHT22;9599;53.706;10.384;2023-03-02T13:46:54;4.40;99.90
18934;DHT22;9599;53.706;10.384;2023-03-02T13:49:28;4.50;99.90
18934;DHT22;9599;53.706;10.384;2023-03-02T13:52:01;4.60;99.90
18934;DHT22;9599;53.706;10.384;2023-03-02T13:54:35;4.40;99.90
18934;DHT22;9599;53.706;10.384;2023-03-02T13:57:04;4.40;99.90
18934;DHT22;9599;53.706;10.384;2023-03-02T13:59:33;4.30;99.90
18934;DHT22;9599;53.706;10.384;2023-03-02T14:02:02;4.40;99.90
18934;DHT22;9599;53.706;10.384;2023-03-02T14:04:31;4.50;99.90
18934;DHT22;9599;53.706;10.384;2023-03-02T14:06:59;4.60;99.90
18934;DHT22;9599;53.706;10.384;2023-03-02T14:09:27;4.60;99.90
18934;DHT22;9599;53.706;10.384;2023-03-02T14:11:55;4.70;99.90
18934;DHT22;9599;53.706;10.384;2023-03-02T14:14:24;4.70;99.90
18934;DHT22;9599;53.706;10.384;2023-03-02T14:16:53;4.70;99.90
18934;DHT22;9599;53.706;10.384;2023-03-02T14:19:21;4.80;99.90
18934;DHT22;9599;53.706;10.384;2023-03-02T14:21:50;4.70;99.90
18934;DHT22;9599;53.706;10.384;2023-03-02T14:24:18;4.70;99.90
18934;DHT22;9599;53.706;10.384;2023-03-02T14:26:47;4.80;99.90
18934;DHT22;9599;53.706;10.384;2023-03-02T14:29:20;4.60;99.90
18934;DHT22;9599;53.706;10.384;2023-03-02T14:31:48;4.40;99.90
18934;DHT22;9599;53.706;10.384;2023-03-02T14:34:17;4.40;99.90
18934;DHT22;9599;53.706;10.384;2023-03-02T14:36:46;4.50;99.90
18934;DHT22;9599;53.706;10.384;2023-03-02T14:39:21;4.40;99.90
18934;DHT22;9599;53.706;10.384;2023-03-02T14:41:49;4.40;99.90
18934;DHT22;9599;53.706;10.384;2023-03-02T14:44:21;4.20;99.90
18934;DHT22;9599;53.706;10.384;2023-03-02T14:46:49;4.20;99.90
18934;DHT22;9599;53.706;10.384;2023-03-02T14:49:17;4.30;99.90
18934;DHT22;9599;53.706;10.384;2023-03-02T14:51:56;4.40;99.90
18934;DHT22;9599;53.706;10.384;2023-03-02T14:54:33;4.50;99.90
18934;DHT22;9599;53.706;10.384;2023-03-02T14:57:04;4.40;99.90
18934;DHT22;9599;53.706;10.384;2023-03-02T14:59:33;4.50;99.90
18934;DHT22;9599;53.706;10.384;2023-03-02T15:02:01;4.50;99.90
18934;DHT22;9599;53.706;10.384;2023-03-02T15:04:48;4.60;99.90
18934;DHT22;9599;53.706;10.384;2023-03-02T15:07:20;4.50;99.90
18934;DHT22;9599;53.706;10.384;2023-03-02T15:09:49;4.60;99.90
18934;DHT22;9599;53.706;10.384;2023-03-02T15:12:17;4.60;99.90
18934;DHT22;9599;53.706;10.384;2023-03-02T15:14:45;4.60;99.90
18934;DHT22;9599;53.706;10.384;2023-03-02T15:17:13;4.40;99.90
18934;DHT22;9599;53.706;10.384;2023-03-02T15:19:41;4.30;99.90
18934;DHT22;9599;53.706;10.384;2023-03-02T15:22:10;4.40;99.90
18934;DHT22;9599;53.706;10.384;2023-03-02T15:24:39;4.40;99.90
18934;DHT22;9599;53.706;10.384;2023-03-02T15:27:08;4.50;99.90
18934;DHT22;9599;53.706;10.384;2023-03-02T15:29:36;4.60;99.90
18934;DHT22;9599;53.706;10.384;2023-03-02T15:32:04;4.40;99.90
18934;DHT22;9599;53.706;10.384;2023-03-02T15:34:34;4.30;99.90
18934;DHT22;9599;53.706;10.384;2023-03-02T15:37:02;4.30;99.90
18934;DHT22;9599;53.706;10.384;2023-03-02T15:39:30;4.40;99.90
18934;DHT22;9599;53.706;10.384;2023-03-02T15:41:59;4.50;99.90
18934;DHT22;9599;53.706;10.384;2023-03-02T15:44:28;4.60;99.90
18934;DHT22;9599;53.706;10.384;2023-03-02T15:46:57;4.60;99.90
18934;DHT22;9599;53.706;10.384;2023-03-02T15:49:26;4.50;99.90
18934;DHT22;9599;53.706;10.384;2023-03-02T15:51:55;4.60;99.90
18934;DHT22;9599;53.706;10.384;2023-03-02T15:54:24;4.60;99.90
18934;DHT22;9599;53.706;10.384;2023-03-02T15:56:53;4.60;99.90
18934;DHT22;9599;53.706;10.384;2023-03-02T15:59:22;4.70;99.90
18934;DHT22;9599;53.706;10.384;2023-03-02T16:01:52;4.60;99.90
18934;DHT22;9599;53.706;10.384;2023-03-02T16:04:25;4.50;99.90
18934;DHT22;9599;53.706;10.384;2023-03-02T16:06:53;4.60;99.90
18934;DHT22;9599;53.706;10.384;2023-03-02T16:09:22;4.60;99.90
18934;DHT22;9599;53.706;10.384;2023-03-02T16:11:51;4.60;99.90
18934;DHT22;9599;53.706;10.384;2023-03-02T16:14:19;4.50;99.90